createdAt,value
2023-04-26T00:00:36.295Z,79.53
2023-04-26T00:01:27.073Z,79.53
2023-04-26T00:02:17.958Z,79.74
2023-04-26T00:03:08.879Z,79.77
2023-04-26T00:03:59.862Z,79.77
2023-04-26T00:04:50.955Z,79.77
2023-04-26T00:05:41.782Z,79.88
2023-04-26T00:06:32.633Z,79.88
2023-04-26T00:07:23.365Z,79.98
2023-04-26T00:08:14.152Z,79.98
2023-04-26T00:09:04.933Z,79.98
2023-04-26T00:09:55.728Z,79.98
2023-04-26T00:10:46.499Z,79.98
2023-04-26T00:11:37.334Z,80.08
2023-04-26T00:12:28.078Z,80.08
2023-04-26T00:13:18.870Z,80.15
2023-04-26T00:14:09.660Z,80.05
2023-04-26T00:15:00.450Z,80.08
2023-04-26T00:15:51.275Z,79.98
2023-04-26T00:16:42.099Z,80.08
2023-04-26T00:17:32.831Z,80.19
2023-04-26T00:18:23.584Z,80.19
2023-04-26T00:19:14.369Z,80.29
2023-04-26T00:20:05.166Z,80.19
2023-04-26T00:20:55.934Z,80.29
2023-04-26T00:21:46.716Z,80.29
2023-04-26T00:22:37.493Z,80.29
2023-04-26T00:23:28.275Z,80.40
2023-04-26T00:24:19.062Z,80.40
2023-04-26T00:25:09.859Z,80.40
2023-04-26T00:26:00.635Z,80.36
2023-04-26T00:26:51.413Z,80.26
2023-04-26T00:27:42.178Z,80.26
2023-04-26T00:28:32.972Z,80.15
2023-04-26T00:29:23.741Z,80.05
2023-04-26T00:30:14.582Z,80.15
2023-04-26T00:31:05.390Z,80.15
2023-04-26T00:31:56.177Z,80.05
2023-04-26T00:32:46.973Z,80.05
2023-04-26T00:33:37.763Z,79.94
2023-04-26T00:34:28.537Z,79.84
2023-04-26T00:35:19.341Z,79.84
2023-04-26T00:36:10.098Z,79.84
2023-04-26T00:37:00.871Z,79.74
2023-04-26T00:37:51.649Z,79.74
2023-04-26T00:38:42.427Z,79.63
2023-04-26T00:39:33.221Z,79.60
2023-04-26T00:40:24.026Z,79.49
2023-04-26T00:41:15.047Z,79.39
2023-04-26T00:42:05.817Z,79.19
2023-04-26T00:42:56.603Z,79.12
2023-04-26T00:43:47.400Z,78.98
2023-04-26T00:44:38.165Z,79.02
2023-04-26T00:45:28.977Z,78.91
2023-04-26T00:46:19.903Z,78.81
2023-04-26T00:47:10.931Z,78.81
2023-04-26T00:48:01.718Z,78.81
2023-04-26T00:48:52.863Z,78.70
2023-04-26T00:49:43.895Z,78.70
2023-04-26T00:50:34.688Z,78.60
2023-04-26T00:51:25.480Z,78.46
2023-04-26T00:52:16.252Z,78.46
2023-04-26T00:53:07.071Z,78.36
2023-04-26T00:53:57.836Z,78.25
2023-04-26T00:54:48.595Z,78.25
2023-04-26T00:55:39.423Z,78.25
2023-04-26T00:56:30.161Z,78.15
2023-04-26T00:57:20.948Z,78.15
2023-04-26T00:58:11.742Z,78.15
2023-04-26T00:59:02.543Z,78.15
2023-04-26T00:59:53.330Z,78.05
2023-04-26T01:00:44.148Z,77.94
2023-04-26T01:01:34.980Z,77.74
2023-04-26T01:02:26.150Z,77.64
2023-04-26T01:03:17.078Z,77.53
2023-04-26T01:04:07.984Z,77.53
2023-04-26T01:04:58.794Z,77.53
2023-04-26T01:05:49.591Z,77.43
2023-04-26T01:06:40.364Z,77.43
2023-04-26T01:07:31.160Z,77.33
2023-04-26T01:08:21.966Z,77.22
2023-04-26T01:09:12.745Z,77.22
2023-04-26T01:10:03.555Z,77.22
2023-04-26T01:10:54.335Z,77.22
2023-04-26T01:11:45.133Z,77.22
2023-04-26T01:12:35.881Z,77.12
2023-04-26T01:13:26.686Z,77.12
2023-04-26T01:14:17.484Z,77.12
2023-04-26T01:15:08.254Z,77.12
2023-04-26T01:15:59.047Z,77.12
2023-04-26T01:16:49.848Z,77.01
2023-04-26T01:17:40.682Z,77.01
2023-04-26T01:18:31.444Z,76.91
2023-04-26T01:19:22.222Z,76.91
2023-04-26T01:20:13.010Z,76.81
2023-04-26T01:21:03.796Z,76.91
2023-04-26T01:21:54.599Z,76.91
2023-04-26T01:22:45.362Z,76.91
2023-04-26T01:23:36.136Z,76.91
2023-04-26T01:24:26.907Z,77.01
2023-04-26T01:25:17.702Z,77.01
2023-04-26T01:26:08.481Z,77.12
2023-04-26T01:26:59.293Z,77.12
2023-04-26T01:27:50.111Z,77.15
2023-04-26T01:28:40.877Z,77.22
2023-04-26T01:29:31.659Z,77.36
2023-04-26T01:30:22.436Z,77.47
2023-04-26T01:31:13.246Z,77.56
2023-04-26T01:32:04.001Z,77.56
2023-04-26T01:32:54.808Z,77.77
2023-04-26T01:33:45.571Z,77.77
2023-04-26T01:34:36.339Z,77.77
2023-04-26T01:35:27.132Z,77.87
2023-04-26T01:36:17.956Z,77.87
2023-04-26T01:37:08.703Z,77.98
2023-04-26T01:37:59.487Z,78.08
2023-04-26T01:38:50.517Z,78.08
2023-04-26T01:39:41.411Z,78.08
2023-04-26T01:40:32.198Z,78.19
2023-04-26T01:41:22.978Z,78.19
2023-04-26T01:42:13.766Z,78.29
2023-04-26T01:43:04.561Z,78.29
2023-04-26T01:43:55.351Z,78.29
2023-04-26T01:44:46.159Z,78.43
2023-04-26T01:45:36.937Z,78.39
2023-04-26T01:46:27.774Z,78.39
2023-04-26T01:47:18.581Z,78.53
2023-04-26T01:48:09.428Z,78.53
2023-04-26T01:49:00.168Z,78.64
2023-04-26T01:49:50.952Z,78.74
2023-04-26T01:50:41.744Z,78.85
2023-04-26T01:51:32.543Z,78.95
2023-04-26T01:52:23.314Z,78.95
2023-04-26T01:53:14.079Z,79.05
2023-04-26T01:54:04.860Z,79.16
2023-04-26T01:54:55.639Z,79.05
2023-04-26T01:55:46.442Z,79.16
2023-04-26T01:56:37.216Z,79.26
2023-04-26T01:57:27.992Z,79.36
2023-04-26T01:58:18.816Z,79.36
2023-04-26T01:59:09.582Z,79.47
2023-04-26T02:00:00.377Z,79.57
2023-04-26T02:00:51.164Z,79.67
2023-04-26T02:01:41.985Z,79.67
2023-04-26T02:02:32.804Z,79.88
2023-04-26T02:03:23.705Z,79.98
2023-04-26T02:04:14.582Z,80.08
2023-04-26T02:05:05.380Z,80.19
2023-04-26T02:05:56.160Z,80.19
2023-04-26T02:06:46.953Z,80.19
2023-04-26T02:07:37.705Z,80.29
2023-04-26T02:08:28.481Z,80.40
2023-04-26T02:09:19.261Z,80.50
2023-04-26T02:10:10.047Z,80.50
2023-04-26T02:11:00.818Z,80.60
2023-04-26T02:11:51.604Z,80.71
2023-04-26T02:12:42.396Z,80.81
2023-04-26T02:13:33.176Z,80.91
2023-04-26T02:14:23.952Z,81.02
2023-04-26T02:15:14.744Z,81.12
2023-04-26T02:16:05.547Z,81.12
2023-04-26T02:16:56.316Z,81.12
2023-04-26T02:17:47.125Z,81.23
2023-04-26T02:18:37.899Z,81.43
2023-04-26T02:19:28.673Z,81.43
2023-04-26T02:20:19.697Z,81.43
2023-04-26T02:21:10.559Z,81.54
2023-04-26T02:22:01.395Z,81.54
2023-04-26T02:22:52.152Z,81.64
2023-04-26T02:23:42.957Z,81.64
2023-04-26T02:24:33.766Z,81.64
2023-04-26T02:25:24.513Z,81.64
2023-04-26T02:26:15.284Z,81.74
2023-04-26T02:27:06.062Z,81.84
2023-04-26T02:27:56.817Z,81.88
2023-04-26T02:28:47.672Z,81.99
2023-04-26T02:29:44.212Z,81.99
2023-04-26T02:30:30.490Z,82.09
2023-04-26T02:31:23.112Z,82.19
2023-04-26T02:32:11.373Z,82.19
2023-04-26T02:33:02.318Z,82.29
2023-04-26T02:33:53.103Z,82.29
2023-04-26T02:34:43.883Z,82.40
2023-04-26T02:35:34.660Z,82.40
2023-04-26T02:36:25.430Z,82.40
2023-04-26T02:37:16.248Z,82.50
2023-04-26T02:38:07.028Z,82.40
2023-04-26T02:38:57.854Z,82.40
2023-04-26T02:39:48.621Z,82.40
2023-04-26T02:40:39.397Z,82.40
2023-04-26T02:41:30.202Z,82.50
2023-04-26T02:42:20.975Z,82.50
2023-04-26T02:43:11.737Z,82.50
2023-04-26T02:44:02.544Z,82.50
2023-04-26T02:44:53.352Z,82.50
2023-04-26T02:45:44.118Z,82.50
2023-04-26T02:46:34.928Z,82.50
2023-04-26T02:47:25.752Z,82.60
2023-04-26T02:48:16.485Z,82.60
2023-04-26T02:49:07.304Z,82.60
2023-04-26T02:49:58.082Z,82.71
2023-04-26T02:50:48.886Z,82.71
2023-04-26T02:51:39.663Z,82.71
2023-04-26T02:52:30.476Z,82.81
2023-04-26T02:53:21.247Z,82.81
2023-04-26T02:54:12.061Z,82.92
2023-04-26T02:55:02.846Z,82.81
2023-04-26T02:55:53.673Z,82.86
2023-04-26T02:56:44.487Z,82.95
2023-04-26T02:57:35.279Z,82.92
2023-04-26T02:58:26.106Z,83.06
2023-04-26T02:59:16.868Z,83.06
2023-04-26T03:00:07.669Z,83.02
2023-04-26T03:01:01.038Z,83.06
2023-04-26T03:01:49.174Z,83.06
2023-04-26T03:02:40.074Z,83.06
2023-04-26T03:03:31.158Z,83.06
2023-04-26T03:04:22.119Z,83.16
2023-04-26T03:05:12.876Z,83.26
2023-04-26T03:06:03.629Z,83.16
2023-04-26T03:06:54.408Z,83.16
2023-04-26T03:07:45.244Z,83.16
2023-04-26T03:08:36.000Z,83.16
2023-04-26T03:09:26.790Z,83.26
2023-04-26T03:10:18.017Z,83.26
2023-04-26T03:11:09.263Z,83.26
2023-04-26T03:11:59.950Z,83.26
2023-04-26T03:12:50.681Z,83.26
2023-04-26T03:13:41.506Z,83.26
2023-04-26T03:14:32.223Z,83.26
2023-04-26T03:15:23.010Z,83.26
2023-04-26T03:16:13.864Z,83.23
2023-04-26T03:17:04.561Z,83.23
2023-04-26T03:17:55.365Z,83.23
2023-04-26T03:18:46.140Z,83.23
2023-04-26T03:19:36.917Z,83.23
2023-04-26T03:20:27.693Z,83.23
2023-04-26T03:21:18.428Z,83.23
2023-04-26T03:22:09.092Z,83.23
2023-04-26T03:23:00.044Z,83.12
2023-04-26T03:23:50.871Z,83.12
2023-04-26T03:24:41.729Z,83.23
2023-04-26T03:25:32.615Z,83.23
2023-04-26T03:26:23.828Z,83.23
2023-04-26T03:27:14.636Z,83.12
2023-04-26T03:28:05.401Z,83.23
2023-04-26T03:28:56.187Z,83.33
2023-04-26T03:29:46.983Z,83.33
2023-04-26T03:30:37.860Z,83.33
2023-04-26T03:31:28.583Z,83.47
2023-04-26T03:32:19.373Z,83.47
2023-04-26T03:33:10.107Z,83.58
2023-04-26T03:34:01.072Z,83.68
2023-04-26T03:34:52.193Z,83.78
2023-04-26T03:35:43.034Z,83.89
2023-04-26T03:36:33.854Z,83.99
2023-04-26T03:37:24.863Z,83.99
2023-04-26T03:38:16.018Z,83.99
2023-04-26T03:39:06.830Z,84.20
2023-04-26T03:39:57.589Z,84.20
2023-04-26T03:40:48.387Z,84.30
2023-04-26T03:41:39.214Z,84.61
2023-04-26T03:42:30.200Z,84.61
2023-04-26T03:43:21.084Z,84.61
2023-04-26T03:44:12.406Z,84.61
2023-04-26T03:45:03.220Z,84.82
2023-04-26T03:45:54.313Z,85.34
2023-04-26T03:46:45.175Z,85.34
2023-04-26T03:47:36.102Z,85.44
2023-04-26T03:48:26.937Z,85.24
2023-04-26T03:49:17.806Z,85.34
2023-04-26T03:50:08.671Z,85.55
2023-04-26T03:50:59.540Z,85.65
2023-04-26T03:51:50.430Z,85.86
2023-04-26T03:52:41.275Z,86.07
2023-04-26T03:53:32.185Z,86.07
2023-04-26T03:54:23.048Z,86.17
2023-04-26T03:55:13.914Z,86.27
2023-04-26T03:56:04.798Z,86.17
2023-04-26T03:56:55.664Z,86.17
2023-04-26T03:57:46.554Z,86.27
2023-04-26T03:58:37.442Z,86.17
2023-04-26T03:59:28.330Z,86.07
2023-04-26T04:00:19.206Z,86.07
2023-04-26T04:01:10.203Z,86.07
2023-04-26T04:02:01.078Z,86.07
2023-04-26T04:02:52.113Z,86.02
2023-04-26T04:03:43.177Z,86.17
2023-04-26T04:04:34.327Z,86.17
2023-04-26T04:05:25.111Z,86.17
2023-04-26T04:06:15.989Z,86.17
2023-04-26T04:07:06.886Z,86.27
2023-04-26T04:07:57.741Z,86.27
2023-04-26T04:08:48.634Z,86.27
2023-04-26T04:09:39.505Z,86.23
2023-04-26T04:10:30.369Z,86.27
2023-04-26T04:11:21.262Z,86.33
2023-04-26T04:12:12.124Z,86.44
2023-04-26T04:13:02.997Z,86.54
2023-04-26T04:13:53.876Z,86.75
2023-04-26T04:14:44.756Z,86.85
2023-04-26T04:15:35.696Z,86.96
2023-04-26T04:16:26.689Z,86.85
2023-04-26T04:17:17.556Z,86.96
2023-04-26T04:18:08.489Z,86.96
2023-04-26T04:18:59.334Z,87.06
2023-04-26T04:19:50.202Z,87.16
2023-04-26T04:20:41.051Z,87.06
2023-04-26T04:21:31.994Z,87.27
2023-04-26T04:22:22.818Z,87.30
2023-04-26T04:23:13.692Z,87.51
2023-04-26T04:24:04.594Z,87.51
2023-04-26T04:24:55.461Z,87.72
2023-04-26T04:25:46.383Z,87.93
2023-04-26T04:26:37.238Z,88.03
2023-04-26T04:27:28.152Z,88.24
2023-04-26T04:28:19.029Z,88.24
2023-04-26T04:29:09.909Z,88.24
2023-04-26T04:30:00.802Z,88.39
2023-04-26T04:30:51.754Z,88.39
2023-04-26T04:31:42.698Z,88.48
2023-04-26T04:32:33.614Z,88.69
2023-04-26T04:33:24.448Z,88.79
2023-04-26T04:34:15.323Z,88.79
2023-04-26T04:35:06.198Z,88.90
2023-04-26T04:35:57.167Z,88.90
2023-04-26T04:36:48.061Z,88.96
2023-04-26T04:37:38.910Z,89.00
2023-04-26T04:38:29.800Z,88.96
2023-04-26T04:39:20.706Z,89.07
2023-04-26T04:40:11.880Z,88.96
2023-04-26T04:41:02.746Z,88.96
2023-04-26T04:41:53.650Z,88.96
2023-04-26T04:42:44.573Z,89.07
2023-04-26T04:43:35.441Z,89.17
2023-04-26T04:44:26.336Z,89.07
2023-04-26T04:45:17.243Z,88.96
2023-04-26T04:46:09.144Z,88.86
2023-04-26T04:46:59.191Z,88.86
2023-04-26T04:47:50.223Z,88.86
2023-04-26T04:48:41.094Z,88.96
2023-04-26T04:49:32.005Z,88.96
2023-04-26T04:50:22.920Z,88.96
2023-04-26T04:51:13.833Z,88.96
2023-04-26T04:52:04.774Z,89.07
2023-04-26T04:52:55.697Z,89.07
2023-04-26T04:53:46.581Z,89.07
2023-04-26T04:54:37.520Z,88.96
2023-04-26T04:55:28.441Z,88.86
2023-04-26T04:56:19.337Z,88.76
2023-04-26T04:57:10.240Z,88.76
2023-04-26T04:58:01.141Z,88.76
2023-04-26T04:58:52.214Z,88.76
2023-04-26T04:59:42.704Z,88.76
2023-04-26T05:00:33.599Z,88.86
2023-04-26T05:01:24.560Z,88.86
2023-04-26T05:02:15.626Z,88.86
2023-04-26T05:03:06.668Z,88.96
2023-04-26T05:03:58.335Z,89.07
2023-04-26T05:04:48.465Z,89.17
2023-04-26T05:05:39.360Z,89.28
2023-04-26T05:06:30.271Z,89.23
2023-04-26T05:07:22.163Z,89.23
2023-04-26T05:08:11.986Z,89.34
2023-04-26T05:09:02.878Z,89.44
2023-04-26T05:09:53.831Z,89.34
2023-04-26T05:10:44.696Z,89.34
2023-04-26T05:11:35.616Z,89.34
2023-04-26T05:12:26.529Z,89.23
2023-04-26T05:13:17.448Z,89.13
2023-04-26T05:14:08.353Z,89.13
2023-04-26T05:14:59.283Z,89.13
2023-04-26T05:15:50.183Z,88.92
2023-04-26T05:16:41.139Z,88.92
2023-04-26T05:17:32.072Z,89.03
2023-04-26T05:18:22.982Z,88.92
2023-04-26T05:19:13.882Z,88.92
2023-04-26T05:20:04.797Z,89.03
2023-04-26T05:20:55.708Z,89.13
2023-04-26T05:21:46.595Z,88.98
2023-04-26T05:22:37.505Z,88.98
2023-04-26T05:23:28.436Z,88.78
2023-04-26T05:24:19.356Z,88.67
2023-04-26T05:25:10.324Z,88.57
2023-04-26T05:26:01.211Z,88.57
2023-04-26T05:26:52.099Z,88.57
2023-04-26T05:27:43.019Z,88.46
2023-04-26T05:28:33.986Z,88.36
2023-04-26T05:29:24.915Z,88.36
2023-04-26T05:30:15.809Z,88.26
2023-04-26T05:31:07.552Z,88.16
2023-04-26T05:31:57.911Z,88.16
2023-04-26T05:32:48.827Z,88.16
2023-04-26T05:33:39.676Z,88.16
2023-04-26T05:34:30.591Z,88.16
2023-04-26T05:35:21.500Z,88.16
2023-04-26T05:36:12.427Z,88.16
2023-04-26T05:37:03.341Z,88.06
2023-04-26T05:37:54.254Z,87.95
2023-04-26T05:38:45.153Z,87.74
2023-04-26T05:39:36.082Z,87.64
2023-04-26T05:40:27.009Z,87.64
2023-04-26T05:41:17.911Z,87.64
2023-04-26T05:42:08.828Z,87.64
2023-04-26T05:42:59.728Z,87.64
2023-04-26T05:43:50.977Z,87.64
2023-04-26T05:44:41.399Z,87.54
2023-04-26T05:45:32.379Z,87.54
2023-04-26T05:46:23.346Z,87.43
2023-04-26T05:47:14.264Z,87.43
2023-04-26T05:48:05.217Z,87.43
2023-04-26T05:48:56.083Z,87.43
2023-04-26T05:49:47.000Z,87.39
2023-04-26T05:50:39.951Z,87.29
2023-04-26T05:51:28.536Z,87.29
2023-04-26T05:52:19.453Z,87.18
2023-04-26T05:53:10.365Z,87.18
2023-04-26T05:54:01.324Z,87.29
2023-04-26T05:54:52.230Z,87.39
2023-04-26T05:55:43.153Z,87.39
2023-04-26T05:56:34.053Z,87.49
2023-04-26T05:57:25.005Z,87.49
2023-04-26T05:58:15.892Z,87.49
2023-04-26T05:59:06.814Z,87.49
2023-04-26T05:59:57.730Z,87.56
2023-04-26T06:00:48.668Z,87.56
2023-04-26T06:01:39.565Z,87.56
2023-04-26T06:02:30.578Z,87.56
2023-04-26T06:03:21.862Z,87.46
2023-04-26T06:04:12.710Z,87.46
2023-04-26T06:05:03.360Z,87.46
2023-04-26T06:05:54.137Z,87.25
2023-04-26T06:06:45.022Z,87.25
2023-04-26T06:07:35.913Z,87.35
2023-04-26T06:08:26.801Z,87.35
2023-04-26T06:09:19.650Z,87.35
2023-04-26T06:10:08.613Z,87.35
2023-04-26T06:10:59.550Z,87.35
2023-04-26T06:11:50.436Z,87.56
2023-04-26T06:12:41.358Z,87.76
2023-04-26T06:13:32.236Z,87.66
2023-04-26T06:14:30.383Z,87.76
2023-04-26T06:15:15.056Z,87.76
2023-04-26T06:16:04.762Z,87.87
2023-04-26T06:16:55.693Z,87.87
2023-04-26T06:17:46.606Z,87.91
2023-04-26T06:18:37.492Z,87.81
2023-04-26T06:19:28.430Z,87.81
2023-04-26T06:20:19.308Z,87.91
2023-04-26T06:21:10.236Z,87.91
2023-04-26T06:22:01.172Z,87.91
2023-04-26T06:22:52.113Z,88.01
2023-04-26T06:23:43.013Z,88.07
2023-04-26T06:24:33.934Z,87.97
2023-04-26T06:25:24.856Z,87.87
2023-04-26T06:26:15.813Z,87.66
2023-04-26T06:27:06.671Z,87.56
2023-04-26T06:27:57.555Z,87.60
2023-04-26T06:28:48.481Z,87.49
2023-04-26T06:29:39.389Z,87.49
2023-04-26T06:30:30.296Z,87.49
2023-04-26T06:31:21.215Z,87.49
2023-04-26T06:32:12.124Z,87.60
2023-04-26T06:33:03.036Z,87.49
2023-04-26T06:33:54.318Z,87.49
2023-04-26T06:34:44.704Z,87.49
2023-04-26T06:35:35.601Z,87.60
2023-04-26T06:36:26.526Z,87.60
2023-04-26T06:37:17.476Z,87.66
2023-04-26T06:38:08.391Z,87.76
2023-04-26T06:38:59.295Z,87.76
2023-04-26T06:39:50.210Z,87.87
2023-04-26T06:40:41.103Z,87.87
2023-04-26T06:41:32.043Z,87.87
2023-04-26T06:42:22.944Z,87.97
2023-04-26T06:43:13.855Z,88.07
2023-04-26T06:44:04.812Z,87.87
2023-04-26T06:44:55.684Z,87.76
2023-04-26T06:45:46.613Z,87.76
2023-04-26T06:46:37.544Z,87.76
2023-04-26T06:47:28.452Z,87.76
2023-04-26T06:48:19.351Z,87.76
2023-04-26T06:49:10.250Z,87.76
2023-04-26T06:50:01.164Z,87.62
2023-04-26T06:50:52.089Z,87.62
2023-04-26T06:51:43.012Z,87.52
2023-04-26T06:52:33.917Z,87.52
2023-04-26T06:53:24.837Z,87.41
2023-04-26T06:54:15.759Z,87.00
2023-04-26T06:55:06.666Z,87.00
2023-04-26T06:55:57.585Z,86.90
2023-04-26T06:56:48.513Z,86.65
2023-04-26T06:57:39.395Z,86.44
2023-04-26T06:58:30.334Z,86.44
2023-04-26T06:59:21.277Z,86.34
2023-04-26T07:00:12.173Z,86.44
2023-04-26T07:01:03.084Z,86.44
2023-04-26T07:01:54.067Z,86.44
2023-04-26T07:02:45.041Z,86.34
2023-04-26T07:03:36.105Z,86.24
2023-04-26T07:04:27.359Z,86.13
2023-04-26T07:05:17.863Z,86.03
2023-04-26T07:06:08.749Z,85.93
2023-04-26T07:06:59.664Z,85.47
2023-04-26T07:07:50.700Z,84.55
2023-04-26T07:08:41.572Z,84.86
2023-04-26T07:09:32.482Z,84.96
2023-04-26T07:10:23.377Z,85.06
2023-04-26T07:11:14.297Z,85.27
2023-04-26T07:12:05.410Z,85.47
2023-04-26T07:12:56.338Z,85.02
2023-04-26T07:13:47.443Z,84.81
2023-04-26T07:14:39.573Z,84.61
2023-04-26T07:15:29.250Z,84.51
2023-04-26T07:16:20.237Z,84.61
2023-04-26T07:17:11.130Z,84.30
2023-04-26T07:18:02.070Z,84.30
2023-04-26T07:18:52.982Z,84.20
2023-04-26T07:19:43.876Z,84.06
2023-04-26T07:20:34.789Z,83.44
2023-04-26T07:21:25.692Z,82.92
2023-04-26T07:22:16.609Z,82.82
2023-04-26T07:23:07.510Z,82.40
2023-04-26T07:23:58.403Z,82.40
2023-04-26T07:24:49.321Z,82.30
2023-04-26T07:25:40.246Z,82.10
2023-04-26T07:26:31.156Z,82.06
2023-04-26T07:27:22.403Z,82.16
2023-04-26T07:28:13.240Z,82.16
2023-04-26T07:29:04.189Z,82.06
2023-04-26T07:29:55.087Z,81.61
2023-04-26T07:30:46.014Z,81.40
2023-04-26T07:31:36.922Z,81.20
2023-04-26T07:32:27.919Z,80.99
2023-04-26T07:33:18.966Z,80.79
2023-04-26T07:34:09.911Z,80.58
2023-04-26T07:35:00.852Z,80.44
2023-04-26T07:35:51.749Z,80.33
2023-04-26T07:36:42.668Z,80.33
2023-04-26T07:37:33.586Z,80.33
2023-04-26T07:38:24.492Z,80.02
2023-04-26T07:39:15.470Z,79.51
2023-04-26T07:40:06.354Z,79.41
2023-04-26T07:40:57.278Z,79.27
2023-04-26T07:41:48.197Z,79.06
2023-04-26T07:42:39.120Z,78.86
2023-04-26T07:43:30.053Z,78.86
2023-04-26T07:44:20.984Z,78.86
2023-04-26T07:45:11.935Z,78.82
2023-04-26T07:46:02.881Z,78.82
2023-04-26T07:46:53.766Z,78.51
2023-04-26T07:47:44.757Z,78.30
2023-04-26T07:48:35.722Z,78.27
2023-04-26T07:49:26.679Z,78.06
2023-04-26T07:50:17.554Z,77.14
2023-04-26T07:51:08.491Z,76.73
2023-04-26T07:51:59.432Z,76.73
2023-04-26T07:52:50.347Z,76.73
2023-04-26T07:53:41.282Z,76.52
2023-04-26T07:54:32.204Z,76.21
2023-04-26T07:55:23.139Z,76.11
2023-04-26T07:56:14.045Z,75.49
2023-04-26T07:57:04.995Z,75.29
2023-04-26T07:57:55.958Z,75.08
2023-04-26T07:58:46.837Z,74.84
2023-04-26T07:59:37.756Z,74.84
2023-04-26T08:00:28.683Z,74.84
2023-04-26T08:01:19.651Z,74.53
2023-04-26T08:02:10.570Z,73.78
2023-04-26T08:03:01.668Z,73.88
2023-04-26T08:03:52.909Z,73.78
2023-04-26T08:04:43.153Z,73.44
2023-04-26T08:05:34.283Z,72.92
2023-04-26T08:06:24.984Z,72.10
2023-04-26T08:07:16.005Z,71.79
2023-04-26T08:08:06.927Z,71.79
2023-04-26T08:08:57.835Z,71.48
2023-04-26T08:09:48.727Z,71.72
2023-04-26T08:10:39.653Z,71.83
2023-04-26T08:11:30.635Z,71.93
2023-04-26T08:12:21.533Z,71.93
2023-04-26T08:13:12.468Z,71.93
2023-04-26T08:14:03.374Z,71.93
2023-04-26T08:14:54.257Z,72.06
2023-04-26T08:15:45.168Z,72.27
2023-04-26T08:16:36.176Z,72.58
2023-04-26T08:17:27.059Z,72.55
2023-04-26T08:18:17.962Z,72.55
2023-04-26T08:19:08.882Z,72.44
2023-04-26T08:19:59.817Z,72.44
2023-04-26T08:20:50.730Z,72.31
2023-04-26T08:21:41.662Z,71.59
2023-04-26T08:22:32.579Z,70.56
2023-04-26T08:23:23.494Z,69.94
2023-04-26T08:24:14.423Z,69.40
2023-04-26T08:25:05.355Z,69.19
2023-04-26T08:25:56.262Z,68.57
2023-04-26T08:26:47.186Z,68.48
2023-04-26T08:27:38.097Z,68.06
2023-04-26T08:28:29.035Z,67.96
2023-04-26T08:29:19.912Z,67.76
2023-04-26T08:30:10.822Z,67.96
2023-04-26T08:31:01.826Z,68.40
2023-04-26T08:31:52.700Z,68.81
2023-04-26T08:32:43.643Z,69.23
2023-04-26T08:33:34.531Z,69.64
2023-04-26T08:34:25.444Z,70.04
2023-04-26T08:35:16.372Z,70.28
2023-04-26T08:36:07.269Z,70.59
2023-04-26T08:36:58.205Z,71.11
2023-04-26T08:37:49.106Z,71.41
2023-04-26T08:38:40.054Z,71.21
2023-04-26T08:39:30.967Z,71.41
2023-04-26T08:40:21.905Z,71.21
2023-04-26T08:41:12.823Z,71.21
2023-04-26T08:42:03.735Z,71.51
2023-04-26T08:42:54.653Z,71.83
2023-04-26T08:43:45.608Z,72.03
2023-04-26T08:44:36.512Z,72.03
2023-04-26T08:45:27.436Z,72.03
2023-04-26T08:46:18.370Z,71.93
2023-04-26T08:47:09.328Z,71.93
2023-04-26T08:48:01.468Z,72.03
2023-04-26T08:48:50.992Z,72.34
2023-04-26T08:49:41.961Z,72.65
2023-04-26T08:50:32.912Z,72.85
2023-04-26T08:51:23.851Z,72.61
2023-04-26T08:52:14.799Z,72.51
2023-04-26T08:53:05.715Z,72.31
2023-04-26T08:53:56.687Z,72.20
2023-04-26T08:54:47.628Z,72.17
2023-04-26T08:55:38.575Z,72.27
2023-04-26T08:56:29.496Z,71.97
2023-04-26T08:57:20.414Z,71.55
2023-04-26T08:58:11.367Z,71.42
2023-04-26T08:59:02.339Z,71.21
2023-04-26T08:59:53.330Z,71.01
2023-04-26T09:00:44.220Z,70.46
2023-04-26T09:01:35.154Z,70.05
2023-04-26T09:02:26.278Z,69.74
2023-04-26T09:03:17.371Z,69.74
2023-04-26T09:04:08.425Z,69.64
2023-04-26T09:04:59.508Z,69.33
2023-04-26T09:05:50.380Z,69.02
2023-04-26T09:06:41.362Z,68.92
2023-04-26T09:07:32.280Z,69.02
2023-04-26T09:08:23.166Z,69.02
2023-04-26T09:09:14.083Z,68.62
2023-04-26T09:10:04.995Z,68.51
2023-04-26T09:10:55.897Z,68.41
2023-04-26T09:11:46.819Z,68.41
2023-04-26T09:12:37.732Z,68.41
2023-04-26T09:13:28.661Z,68.65
2023-04-26T09:14:19.631Z,68.96
2023-04-26T09:15:10.547Z,68.88
2023-04-26T09:16:04.092Z,69.09
2023-04-26T09:16:52.087Z,69.02
2023-04-26T09:17:43.041Z,69.43
2023-04-26T09:18:34.092Z,69.84
2023-04-26T09:19:25.121Z,70.18
2023-04-26T09:20:16.037Z,70.49
2023-04-26T09:21:06.979Z,70.70
2023-04-26T09:21:57.861Z,70.90
2023-04-26T09:22:48.767Z,71.00
2023-04-26T09:23:39.852Z,70.49
2023-04-26T09:24:30.846Z,70.59
2023-04-26T09:25:23.346Z,70.39
2023-04-26T09:26:12.783Z,70.49
2023-04-26T09:27:03.737Z,70.39
2023-04-26T09:27:54.671Z,70.36
2023-04-26T09:28:45.584Z,70.15
2023-04-26T09:29:36.537Z,69.84
2023-04-26T09:30:27.425Z,69.74
2023-04-26T09:31:18.414Z,69.64
2023-04-26T09:32:09.337Z,69.23
2023-04-26T09:33:00.331Z,69.02
2023-04-26T09:33:51.212Z,69.09
2023-04-26T09:34:42.170Z,69.09
2023-04-26T09:35:33.094Z,68.68
2023-04-26T09:36:24.015Z,68.48
2023-04-26T09:37:14.968Z,68.34
2023-04-26T09:38:09.628Z,68.24
2023-04-26T09:38:56.837Z,67.32
2023-04-26T09:39:47.796Z,67.21
2023-04-26T09:40:38.696Z,66.60
2023-04-26T09:41:29.608Z,66.28
2023-04-26T09:42:20.544Z,66.19
2023-04-26T09:43:11.538Z,66.46
2023-04-26T09:44:02.462Z,66.67
2023-04-26T09:44:53.426Z,66.36
2023-04-26T09:45:44.318Z,65.81
2023-04-26T09:46:35.303Z,65.51
2023-04-26T09:47:26.224Z,64.65
2023-04-26T09:48:17.133Z,64.65
2023-04-26T09:49:08.071Z,64.53
2023-04-26T09:49:58.990Z,64.12
2023-04-26T09:50:49.935Z,63.70
2023-04-26T09:51:40.902Z,63.37
2023-04-26T09:52:31.906Z,62.35
2023-04-26T09:53:22.820Z,61.11
2023-04-26T09:54:13.760Z,60.37
2023-04-26T09:55:04.686Z,59.89
2023-04-26T09:55:55.618Z,59.76
2023-04-26T09:56:46.548Z,59.68
2023-04-26T09:57:37.548Z,59.48
2023-04-26T09:58:28.461Z,59.68
2023-04-26T09:59:19.385Z,59.66
2023-04-26T10:00:10.458Z,59.86
2023-04-26T10:01:01.391Z,59.96
2023-04-26T10:01:52.271Z,59.83
2023-04-26T10:02:43.392Z,59.83
2023-04-26T10:03:34.031Z,59.83
2023-04-26T10:04:24.550Z,59.22
2023-04-26T10:05:15.557Z,59.01
2023-04-26T10:06:06.467Z,59.09
2023-04-26T10:06:57.411Z,58.98
2023-04-26T10:07:48.397Z,58.98
2023-04-26T10:08:39.346Z,58.68
2023-04-26T10:09:30.271Z,58.78
2023-04-26T10:10:21.199Z,59.19
2023-04-26T10:11:12.149Z,58.55
2023-04-26T10:12:03.098Z,58.75
2023-04-26T10:12:54.045Z,58.55
2023-04-26T10:13:44.975Z,57.93
2023-04-26T10:14:35.912Z,58.04
2023-04-26T10:15:26.938Z,58.14
2023-04-26T10:16:17.848Z,57.93
2023-04-26T10:17:08.759Z,57.84
2023-04-26T10:17:59.792Z,57.73
2023-04-26T10:18:51.081Z,57.76
2023-04-26T10:19:41.679Z,57.66
2023-04-26T10:20:32.636Z,57.76
2023-04-26T10:21:23.569Z,58.07
2023-04-26T10:22:14.491Z,57.66
2023-04-26T10:23:05.407Z,57.15
2023-04-26T10:23:56.342Z,57.04
2023-04-26T10:24:47.273Z,56.53
2023-04-26T10:25:38.195Z,56.63
2023-04-26T10:26:29.126Z,56.63
2023-04-26T10:27:20.030Z,56.76
2023-04-26T10:28:10.950Z,56.97
2023-04-26T10:29:02.908Z,56.97
2023-04-26T10:29:52.480Z,56.56
2023-04-26T10:30:43.488Z,56.35
2023-04-26T10:31:34.357Z,55.94
2023-04-26T10:32:25.256Z,56.07
2023-04-26T10:33:16.239Z,56.07
2023-04-26T10:34:07.149Z,56.48
2023-04-26T10:34:58.139Z,56.99
2023-04-26T10:35:48.988Z,57.61
2023-04-26T10:36:39.888Z,58.22
2023-04-26T10:37:30.822Z,58.86
2023-04-26T10:38:21.718Z,59.58
2023-04-26T10:39:12.642Z,60.30
2023-04-26T10:40:03.570Z,61.35
2023-04-26T10:40:55.247Z,62.37
2023-04-26T10:41:45.581Z,63.84
2023-04-26T10:42:36.480Z,64.79
2023-04-26T10:43:27.435Z,65.20
2023-04-26T10:44:18.306Z,66.05
2023-04-26T10:45:09.243Z,66.90
2023-04-26T10:46:00.269Z,67.83
2023-04-26T10:46:51.142Z,68.68
2023-04-26T10:47:42.111Z,69.29
2023-04-26T10:48:32.985Z,70.01
2023-04-26T10:49:26.434Z,70.36
2023-04-26T10:50:14.619Z,70.97
2023-04-26T10:51:05.615Z,71.69
2023-04-26T10:51:56.495Z,72.31
2023-04-26T10:52:47.392Z,72.82
2023-04-26T10:53:38.342Z,73.33
2023-04-26T10:54:29.243Z,73.40
2023-04-26T10:55:20.160Z,73.61